createdAt,value
2023-10-18T00:00:44.208Z,8.73
2023-10-18T00:01:35.713Z,8.95
2023-10-18T00:02:26.722Z,7.35
2023-10-18T00:03:19.475Z,8.77
2023-10-18T00:04:12.214Z,12.20
2023-10-18T00:05:06.991Z,9.32
2023-10-18T00:06:12.727Z,8.05
2023-10-18T00:07:03.419Z,7.15
2023-10-18T00:07:57.526Z,8.13
2023-10-18T00:08:49.123Z,10.52
2023-10-18T00:09:43.522Z,8.68
2023-10-18T00:10:34.426Z,8.52
2023-10-18T00:11:27.089Z,9.05
2023-10-18T00:12:19.798Z,10.68
2023-10-18T00:13:13.184Z,7.75
2023-10-18T00:14:04.277Z,11.30
2023-10-18T00:14:55.022Z,8.32
2023-10-18T00:15:46.084Z,9.77
2023-10-18T00:16:36.906Z,9.77
2023-10-18T00:17:27.751Z,11.27
2023-10-18T00:18:18.973Z,9.32
2023-10-18T00:19:10.082Z,10.45
2023-10-18T00:20:01.799Z,7.80
2023-10-18T00:21:01.049Z,14.68
2023-10-18T00:21:52.303Z,8.75
2023-10-18T00:22:44.534Z,9.75
2023-10-18T00:23:37.918Z,8.65
2023-10-18T00:24:29.016Z,8.02
2023-10-18T00:25:22.871Z,9.02
2023-10-18T00:26:14.118Z,7.93
2023-10-18T00:27:10.343Z,9.55
2023-10-18T00:28:01.138Z,7.82
2023-10-18T00:28:51.908Z,9.50
2023-10-18T00:29:44.413Z,8.65
2023-10-18T00:30:37.026Z,8.68
2023-10-18T00:31:30.462Z,9.10
2023-10-18T00:32:24.894Z,10.98
2023-10-18T00:33:16.293Z,10.60
2023-10-18T00:34:06.896Z,10.80
2023-10-18T00:34:57.871Z,10.23
2023-10-18T00:35:48.902Z,13.23
2023-10-18T00:36:41.347Z,8.43
2023-10-18T00:37:32.961Z,8.93
2023-10-18T00:38:25.732Z,9.45
2023-10-18T00:39:22.559Z,13.82
2023-10-18T00:40:26.593Z,10.75
2023-10-18T00:41:23.098Z,11.63
2023-10-18T00:42:29.747Z,11.40
2023-10-18T00:43:24.455Z,7.97
2023-10-18T00:44:15.196Z,10.38
2023-10-18T00:45:10.229Z,8.90
2023-10-18T00:46:01.929Z,10.75
2023-10-18T00:46:54.302Z,11.82
2023-10-18T00:47:45.303Z,9.00
2023-10-18T00:48:36.194Z,11.68
2023-10-18T00:49:28.708Z,13.23
2023-10-18T00:50:28.839Z,9.30
2023-10-18T00:51:20.529Z,10.13
2023-10-18T00:52:11.848Z,8.57
2023-10-18T00:53:03.895Z,12.30
2023-10-18T00:53:55.844Z,12.18
2023-10-18T00:54:47.802Z,7.57
2023-10-18T00:55:39.184Z,9.35
2023-10-18T00:56:31.098Z,9.80
2023-10-18T00:57:35.561Z,10.77
2023-10-18T00:58:35.242Z,9.82
2023-10-18T00:59:28.789Z,12.73
2023-10-18T01:00:25.804Z,10.30
2023-10-18T01:01:19.138Z,11.23
2023-10-18T01:02:15.830Z,10.77
2023-10-18T01:03:11.623Z,11.68
2023-10-18T01:04:06.713Z,9.98
2023-10-18T01:04:57.729Z,10.90
2023-10-18T01:06:06.621Z,9.27
2023-10-18T01:06:59.513Z,10.10
2023-10-18T01:07:54.433Z,7.90
2023-10-18T01:08:48.627Z,11.02
2023-10-18T01:09:45.876Z,10.07
2023-10-18T01:10:38.964Z,7.20
2023-10-18T01:11:30.043Z,11.18
2023-10-18T01:12:21.765Z,10.50
2023-10-18T01:13:13.250Z,10.73
2023-10-18T01:14:06.098Z,11.07
2023-10-18T01:14:58.486Z,10.15
2023-10-18T01:15:51.740Z,8.15
2023-10-18T01:16:45.635Z,10.68
2023-10-18T01:17:37.901Z,9.63
2023-10-18T01:18:28.937Z,10.68
2023-10-18T01:19:19.893Z,11.80
2023-10-18T01:20:21.055Z,11.05
2023-10-18T01:21:20.277Z,10.40
2023-10-18T01:22:11.299Z,10.73
2023-10-18T01:23:02.764Z,9.70
2023-10-18T01:23:55.590Z,11.10
2023-10-18T01:24:47.304Z,11.23
2023-10-18T01:26:30.459Z,12.13
2023-10-18T01:27:21.545Z,9.32
2023-10-18T01:28:13.147Z,12.60
2023-10-18T01:29:09.497Z,7.93
2023-10-18T01:30:00.849Z,9.30
2023-10-18T01:30:51.758Z,10.48
2023-10-18T01:31:46.393Z,11.55
2023-10-18T01:32:37.568Z,10.63
2023-10-18T01:33:33.731Z,8.95
2023-10-18T01:34:26.152Z,13.32
2023-10-18T01:35:17.008Z,11.18
2023-10-18T01:36:12.877Z,9.57
2023-10-18T01:37:03.580Z,13.10
2023-10-18T01:37:54.973Z,10.25
2023-10-18T01:38:49.529Z,10.65
2023-10-18T01:39:40.690Z,8.07
2023-10-18T01:40:42.944Z,9.60
2023-10-18T01:41:39.306Z,9.45
2023-10-18T01:42:31.663Z,11.32
2023-10-18T01:43:24.991Z,10.93
2023-10-18T01:44:20.184Z,11.55
2023-10-18T01:45:11.973Z,11.27
2023-10-18T01:46:03.450Z,10.07
2023-10-18T01:46:57.274Z,9.45
2023-10-18T01:47:54.231Z,12.77
2023-10-18T01:48:52.365Z,8.70
2023-10-18T01:49:47.735Z,10.10
2023-10-18T01:50:40.543Z,9.70
2023-10-18T01:51:31.733Z,9.93
2023-10-18T01:52:23.397Z,8.35
2023-10-18T01:53:24.704Z,10.40
2023-10-18T01:54:16.955Z,10.15
2023-10-18T01:55:10.621Z,10.52
2023-10-18T01:56:04.732Z,8.85
2023-10-18T01:57:01.844Z,10.23
2023-10-18T01:57:53.241Z,7.53
2023-10-18T01:58:44.043Z,11.07
2023-10-18T01:59:36.141Z,12.70
2023-10-18T02:00:35.924Z,8.52
2023-10-18T02:01:28.642Z,8.70
2023-10-18T02:02:19.761Z,9.00
2023-10-18T02:03:13.132Z,9.25
2023-10-18T02:04:04.791Z,7.97
2023-10-18T02:04:58.198Z,11.85
2023-10-18T02:05:49.188Z,11.75
2023-10-18T02:06:40.475Z,8.27
2023-10-18T02:07:31.417Z,11.90
2023-10-18T02:08:22.191Z,9.52
2023-10-18T02:09:13.913Z,13.00
2023-10-18T02:10:57.593Z,12.57
2023-10-18T02:11:48.221Z,13.00
2023-10-18T02:12:40.649Z,14.30
2023-10-18T02:13:31.445Z,11.77
2023-10-18T02:14:22.316Z,10.75
2023-10-18T02:15:13.270Z,10.18
2023-10-18T02:16:08.150Z,17.02
2023-10-18T02:16:59.095Z,10.98
2023-10-18T02:17:53.295Z,10.70
2023-10-18T02:18:49.579Z,12.38
2023-10-18T02:19:40.571Z,11.85
2023-10-18T02:20:32.032Z,10.02
2023-10-18T02:21:26.506Z,11.32
2023-10-18T02:22:20.423Z,11.63
2023-10-18T02:23:14.471Z,10.90
2023-10-18T02:24:07.465Z,14.38
2023-10-18T02:25:00.323Z,13.30
2023-10-18T02:25:51.504Z,11.80
2023-10-18T02:27:04.377Z,12.23
2023-10-18T02:27:55.760Z,13.65
2023-10-18T02:28:46.958Z,13.23
2023-10-18T02:29:40.881Z,12.25
2023-10-18T02:30:32.654Z,10.20
2023-10-18T02:31:23.760Z,11.25
2023-10-18T02:32:34.315Z,12.60
2023-10-18T02:33:37.618Z,13.30
2023-10-18T02:34:31.637Z,11.75
2023-10-18T02:35:22.601Z,10.32
2023-10-18T02:36:13.293Z,11.52
2023-10-18T02:37:06.325Z,12.30
2023-10-18T02:37:57.396Z,16.38
2023-10-18T02:38:51.436Z,10.23
2023-10-18T02:39:45.071Z,10.02
2023-10-18T02:40:41.846Z,13.13
2023-10-18T02:41:35.705Z,12.90
2023-10-18T02:42:26.844Z,8.65
2023-10-18T02:43:17.831Z,12.75
2023-10-18T02:44:22.860Z,10.27
2023-10-18T02:45:15.287Z,10.70
2023-10-18T02:46:10.688Z,10.75
2023-10-18T02:47:23.732Z,15.13
2023-10-18T02:48:15.388Z,13.40
2023-10-18T02:49:09.965Z,9.38
2023-10-18T02:50:00.910Z,11.27
2023-10-18T02:50:58.689Z,11.40
2023-10-18T02:51:50.297Z,11.57
2023-10-18T02:52:43.126Z,11.73
2023-10-18T02:53:41.724Z,10.75
2023-10-18T02:54:34.994Z,10.23
2023-10-18T02:55:27.331Z,14.35
2023-10-18T02:56:18.809Z,14.88
2023-10-18T02:57:11.636Z,14.82
2023-10-18T02:58:03.440Z,13.05
2023-10-18T02:58:59.238Z,12.45
2023-10-18T02:59:51.499Z,11.20
2023-10-18T03:01:41.955Z,10.05
2023-10-18T03:02:33.851Z,10.90
2023-10-18T03:03:26.818Z,10.88
2023-10-18T03:04:19.318Z,13.70
2023-10-18T03:05:11.717Z,13.80
2023-10-18T03:06:15.507Z,16.35
2023-10-18T03:07:09.852Z,14.98
2023-10-18T03:08:01.774Z,10.88
2023-10-18T03:08:52.542Z,14.77
2023-10-18T03:09:46.496Z,13.27
2023-10-18T03:10:48.527Z,14.07
2023-10-18T03:11:40.079Z,14.88
2023-10-18T03:12:30.944Z,9.43
2023-10-18T03:13:24.710Z,11.80
2023-10-18T03:14:15.418Z,10.20
2023-10-18T03:15:10.332Z,12.70
2023-10-18T03:16:07.341Z,13.65
2023-10-18T03:16:58.686Z,15.43
2023-10-18T03:17:51.008Z,10.98
2023-10-18T03:18:45.462Z,17.17
2023-10-18T03:19:38.203Z,27.23
2023-10-18T03:20:29.932Z,10.75
2023-10-18T03:21:24.057Z,12.65
2023-10-18T03:22:14.774Z,12.45
2023-10-18T03:23:05.617Z,11.93
2023-10-18T03:23:58.906Z,21.17
2023-10-18T03:24:56.747Z,22.42
2023-10-18T03:25:48.332Z,23.05
2023-10-18T03:26:39.417Z,23.13
2023-10-18T03:27:33.452Z,20.10
2023-10-18T03:28:26.332Z,16.45
2023-10-18T03:29:17.008Z,18.80
2023-10-18T03:30:19.213Z,15.93
2023-10-18T03:31:24.078Z,13.38
2023-10-18T03:33:13.872Z,25.33
2023-10-18T03:34:10.269Z,17.42
2023-10-18T03:35:01.167Z,13.65
2023-10-18T03:36:20.185Z,19.70
2023-10-18T03:37:25.772Z,23.00
2023-10-18T03:38:19.971Z,18.27
2023-10-18T03:39:17.013Z,22.77
2023-10-18T03:40:20.924Z,19.40
2023-10-18T03:41:20.624Z,18.25
2023-10-18T03:42:25.336Z,24.38
2023-10-18T03:43:17.759Z,17.45
2023-10-18T03:44:09.492Z,19.10
2023-10-18T03:46:19.802Z,29.05
2023-10-18T03:47:13.677Z,15.43
2023-10-18T03:48:24.328Z,17.10
2023-10-18T03:49:38.396Z,18.50
2023-10-18T03:50:50.199Z,17.02
2023-10-18T03:51:41.729Z,16.27
2023-10-18T03:52:34.278Z,13.77
2023-10-18T03:53:28.199Z,15.48
2023-10-18T03:54:20.495Z,20.50
2023-10-18T03:55:20.148Z,13.55
2023-10-18T03:56:14.600Z,18.48
2023-10-18T03:57:07.897Z,19.92
2023-10-18T03:58:00.014Z,17.65
2023-10-18T03:58:54.717Z,18.38
2023-10-18T03:59:46.557Z,17.38
2023-10-18T04:00:40.311Z,20.35
2023-10-18T04:01:41.365Z,16.13
2023-10-18T04:02:35.938Z,18.17
2023-10-18T04:03:30.958Z,13.18
2023-10-18T04:04:22.907Z,17.95
2023-10-18T04:06:29.700Z,12.32
2023-10-18T04:07:25.711Z,16.75
2023-10-18T04:08:17.137Z,17.00
2023-10-18T04:09:17.661Z,14.88
2023-10-18T04:10:14.281Z,15.48
2023-10-18T04:11:05.933Z,16.65
2023-10-18T04:11:57.416Z,18.00
2023-10-18T04:12:51.322Z,13.27
2023-10-18T04:13:42.420Z,24.67
2023-10-18T04:14:34.715Z,15.43
2023-10-18T04:15:30.771Z,13.15
2023-10-18T04:16:29.573Z,12.98
2023-10-18T04:17:33.157Z,14.27
2023-10-18T04:18:27.577Z,22.50
2023-10-18T04:19:20.954Z,12.02
2023-10-18T04:20:21.314Z,17.75
2023-10-18T04:21:16.656Z,15.60
2023-10-18T04:22:09.717Z,17.60
2023-10-18T04:23:03.862Z,17.85
2023-10-18T04:23:57.553Z,20.85
2023-10-18T04:24:50.774Z,21.23
2023-10-18T04:26:05.094Z,20.10
2023-10-18T04:26:57.870Z,20.45
2023-10-18T04:27:48.854Z,21.02
2023-10-18T04:28:39.823Z,22.98
2023-10-18T04:29:34.449Z,49.03
2023-10-18T04:30:32.228Z,22.73
2023-10-18T04:31:23.468Z,20.55
2023-10-18T04:32:20.739Z,35.20
2023-10-18T04:33:25.884Z,25.55
2023-10-18T04:34:21.740Z,25.63
2023-10-18T04:35:18.957Z,31.10
2023-10-18T04:36:12.210Z,20.45
2023-10-18T04:37:06.637Z,17.80
2023-10-18T04:37:58.020Z,18.17
2023-10-18T04:38:50.740Z,28.25
2023-10-18T04:39:42.023Z,21.90
2023-10-18T04:40:35.921Z,19.85
2023-10-18T04:41:29.521Z,18.85
2023-10-18T04:42:20.465Z,24.23
2023-10-18T04:43:11.902Z,45.33
2023-10-18T04:44:11.983Z,34.42
2023-10-18T04:45:17.371Z,40.78
2023-10-18T04:46:14.225Z,34.58
2023-10-18T04:47:05.761Z,36.20
2023-10-18T04:48:07.330Z,43.80
2023-10-18T04:49:01.183Z,24.42
2023-10-18T04:50:02.141Z,16.88
2023-10-18T04:50:54.110Z,15.90
2023-10-18T04:51:50.024Z,29.63
2023-10-18T04:52:43.637Z,29.25
2023-10-18T04:53:34.435Z,22.08
2023-10-18T04:54:43.421Z,25.23
2023-10-18T04:55:42.592Z,26.05
2023-10-18T04:56:35.680Z,15.00
2023-10-18T04:57:26.832Z,19.75
2023-10-18T04:58:17.793Z,20.90
2023-10-18T04:59:12.396Z,21.13
2023-10-18T05:00:12.349Z,21.33
2023-10-18T05:01:08.991Z,15.43
2023-10-18T05:02:00.219Z,23.02
2023-10-18T05:02:52.535Z,18.42
2023-10-18T05:03:45.374Z,20.80
2023-10-18T05:04:36.490Z,17.30
2023-10-18T05:05:29.642Z,14.95
2023-10-18T05:06:30.050Z,28.08
2023-10-18T05:07:21.860Z,18.60
2023-10-18T05:08:18.191Z,21.52
2023-10-18T05:09:09.275Z,22.05
2023-10-18T05:10:06.317Z,23.70
2023-10-18T05:11:17.372Z,19.10
2023-10-18T05:12:15.936Z,14.25
2023-10-18T05:13:19.875Z,17.73
2023-10-18T05:14:20.217Z,17.83
2023-10-18T05:15:10.946Z,19.98
2023-10-18T05:16:11.259Z,18.80
2023-10-18T05:17:24.353Z,21.08
2023-10-18T05:18:18.236Z,17.20
2023-10-18T05:19:12.992Z,20.98
2023-10-18T05:20:30.566Z,26.88
2023-10-18T05:22:25.126Z,14.55
2023-10-18T05:23:26.735Z,15.63
2023-10-18T05:24:23.019Z,14.98
2023-10-18T05:25:24.828Z,13.52
2023-10-18T05:26:18.782Z,18.77
2023-10-18T05:27:24.687Z,17.17
2023-10-18T05:28:25.435Z,14.20
2023-10-18T05:29:19.141Z,18.85
2023-10-18T05:30:17.027Z,25.45
2023-10-18T05:31:08.359Z,25.02
2023-10-18T05:32:11.165Z,20.83
2023-10-18T05:33:02.270Z,25.08
2023-10-18T05:34:03.737Z,19.52
2023-10-18T05:35:12.533Z,21.10
2023-10-18T05:36:17.710Z,25.58
2023-10-18T05:37:15.558Z,20.63
2023-10-18T05:38:20.819Z,16.33
2023-10-18T05:39:20.727Z,16.63
2023-10-18T05:40:34.809Z,15.60
2023-10-18T05:41:28.818Z,14.07
2023-10-18T05:42:22.699Z,17.67
2023-10-18T05:43:39.832Z,28.92
2023-10-18T05:44:31.070Z,19.15
2023-10-18T05:45:21.661Z,21.42
2023-10-18T05:46:12.632Z,19.55
2023-10-18T05:47:07.535Z,25.10
2023-10-18T05:48:14.067Z,20.48
2023-10-18T05:49:14.997Z,24.63
2023-10-18T05:50:07.515Z,22.75
2023-10-18T05:51:05.126Z,21.75
2023-10-18T05:52:15.980Z,25.10
2023-10-18T05:53:13.444Z,30.55
2023-10-18T05:54:05.735Z,29.42
2023-10-18T05:54:57.965Z,25.25
2023-10-18T05:55:55.978Z,38.80
2023-10-18T05:56:57.438Z,43.63
2023-10-18T05:57:48.299Z,29.98
2023-10-18T05:58:39.246Z,28.65
2023-10-18T05:59:33.027Z,28.08
2023-10-18T06:00:23.917Z,31.38
2023-10-18T06:01:15.078Z,30.50
2023-10-18T06:02:14.424Z,24.85
2023-10-18T06:03:05.280Z,26.10
2023-10-18T06:03:58.990Z,30.17
2023-10-18T06:04:52.371Z,17.55
2023-10-18T06:05:44.529Z,18.77
2023-10-18T06:07:30.479Z,20.60
2023-10-18T06:08:23.866Z,23.55
2023-10-18T06:09:34.012Z,28.60
2023-10-18T06:10:25.327Z,30.15
2023-10-18T06:11:20.730Z,31.60
2023-10-18T06:12:15.899Z,33.95
2023-10-18T06:13:11.256Z,27.55
2023-10-18T06:14:02.519Z,35.08
2023-10-18T06:14:58.860Z,25.58
2023-10-18T06:15:51.803Z,32.58
2023-10-18T06:16:44.020Z,26.70
2023-10-18T06:17:47.005Z,46.55
2023-10-18T06:18:38.676Z,51.72
2023-10-18T06:19:32.778Z,40.63
2023-10-18T06:20:29.699Z,39.03
2023-10-18T06:21:21.290Z,34.15
2023-10-18T06:22:30.410Z,32.03
2023-10-18T06:23:30.471Z,29.40
2023-10-18T06:24:21.086Z,43.05
2023-10-18T06:25:26.546Z,25.65
2023-10-18T06:26:37.806Z,29.00
2023-10-18T06:27:40.003Z,35.83
2023-10-18T06:28:32.203Z,39.42
2023-10-18T06:29:25.963Z,32.42
2023-10-18T06:30:16.652Z,30.08
2023-10-18T06:31:09.887Z,30.30
2023-10-18T06:32:00.851Z,43.67
2023-10-18T06:32:52.277Z,32.78
2023-10-18T06:33:43.112Z,28.50
2023-10-18T06:34:34.934Z,27.08
2023-10-18T06:35:29.000Z,26.65
2023-10-18T06:36:23.072Z,33.95
2023-10-18T06:37:33.034Z,32.42
2023-10-18T06:38:25.342Z,34.30
2023-10-18T06:39:29.905Z,37.50
2023-10-18T06:40:34.091Z,25.50
2023-10-18T06:41:30.190Z,28.52
2023-10-18T06:42:24.147Z,33.28
2023-10-18T06:43:15.713Z,45.20
2023-10-18T06:44:12.266Z,35.47
2023-10-18T06:45:16.482Z,38.55
2023-10-18T06:46:10.196Z,25.92
2023-10-18T06:47:07.577Z,36.65
2023-10-18T06:47:58.741Z,43.65
2023-10-18T06:49:03.876Z,29.40
2023-10-18T06:50:17.890Z,26.33
2023-10-18T06:51:18.437Z,34.97
2023-10-18T06:52:10.870Z,31.33
2023-10-18T06:53:04.511Z,38.72
2023-10-18T06:53:56.547Z,30.25
2023-10-18T06:54:47.520Z,31.70
2023-10-18T06:55:58.106Z,32.83
2023-10-18T06:56:54.592Z,33.17
2023-10-18T06:57:51.033Z,31.25
2023-10-18T06:58:42.115Z,28.67
2023-10-18T06:59:33.675Z,33.67
2023-10-18T07:00:31.655Z,32.90
2023-10-18T07:01:27.709Z,31.38
2023-10-18T07:02:19.199Z,37.15
2023-10-18T07:03:17.700Z,42.22
2023-10-18T07:04:19.745Z,28.73
2023-10-18T07:05:11.115Z,27.80
2023-10-18T07:06:20.644Z,25.15
2023-10-18T07:07:20.936Z,27.92
2023-10-18T07:08:20.484Z,29.75
2023-10-18T07:09:26.832Z,29.38
2023-10-18T07:10:31.844Z,30.35
2023-10-18T07:11:34.731Z,32.45
2023-10-18T07:12:52.547Z,24.27
2023-10-18T07:13:47.730Z,32.22
2023-10-18T07:14:39.414Z,21.27
2023-10-18T07:15:35.538Z,24.65
2023-10-18T07:16:34.662Z,27.45
2023-10-18T07:17:25.921Z,26.35
2023-10-18T07:18:22.100Z,25.30
2023-10-18T07:19:28.742Z,26.25
2023-10-18T07:20:22.153Z,22.40
2023-10-18T07:21:19.986Z,26.17
2023-10-18T07:22:19.317Z,18.70
2023-10-18T07:23:22.043Z,28.38
2023-10-18T07:24:12.673Z,23.88
2023-10-18T07:25:04.337Z,23.23
2023-10-18T07:27:00.679Z,17.33
2023-10-18T07:27:51.648Z,18.23
2023-10-18T07:28:45.088Z,20.92
2023-10-18T07:29:37.895Z,21.95
2023-10-18T07:30:45.909Z,24.25
2023-10-18T07:31:40.195Z,24.95
2023-10-18T07:32:33.188Z,24.75
2023-10-18T07:33:24.613Z,29.13
2023-10-18T07:34:30.671Z,22.42
2023-10-18T07:35:28.063Z,22.05
2023-10-18T07:36:23.428Z,18.35
2023-10-18T07:37:40.394Z,22.70
2023-10-18T07:38:31.019Z,34.97
2023-10-18T07:39:25.556Z,23.33
2023-10-18T07:40:22.952Z,25.65
2023-10-18T07:41:19.220Z,22.50
2023-10-18T07:42:13.294Z,33.33
2023-10-18T07:43:07.415Z,21.73
2023-10-18T07:43:58.508Z,26.80
2023-10-18T07:44:54.383Z,24.52
2023-10-18T07:45:56.900Z,35.38
2023-10-18T07:46:47.841Z,40.60
2023-10-18T07:47:41.351Z,30.50
2023-10-18T07:48:32.666Z,33.55
2023-10-18T07:49:23.705Z,30.77
2023-10-18T07:50:32.923Z,34.83
2023-10-18T07:51:32.374Z,29.60
2023-10-18T07:52:23.564Z,41.13
2023-10-18T07:54:06.761Z,28.33
2023-10-18T07:54:57.693Z,29.50
2023-10-18T07:55:54.494Z,29.20
2023-10-18T07:56:55.278Z,25.60
2023-10-18T07:57:47.908Z,30.13
2023-10-18T07:58:49.121Z,25.08
2023-10-18T07:59:47.205Z,25.50
2023-10-18T08:00:38.286Z,29.40
2023-10-18T08:01:47.736Z,37.05
2023-10-18T08:02:44.426Z,33.17
2023-10-18T08:03:37.090Z,37.40
2023-10-18T08:04:29.375Z,33.42
2023-10-18T08:05:23.632Z,45.00
2023-10-18T08:06:17.881Z,43.88
2023-10-18T08:07:13.446Z,45.15
2023-10-18T08:08:10.132Z,38.40
2023-10-18T08:09:04.858Z,40.85
2023-10-18T08:10:02.133Z,45.53
2023-10-18T08:10:56.771Z,38.92
2023-10-18T08:11:48.603Z,41.80
2023-10-18T08:12:39.894Z,29.73
2023-10-18T08:13:30.483Z,31.13
2023-10-18T08:14:25.840Z,33.38
2023-10-18T08:15:17.775Z,24.00
2023-10-18T08:16:11.424Z,22.33
2023-10-18T08:17:30.497Z,28.00
2023-10-18T08:18:40.276Z,24.15
2023-10-18T08:19:33.591Z,26.48
2023-10-18T08:20:24.409Z,32.78
2023-10-18T08:21:27.645Z,24.67
2023-10-18T08:22:20.816Z,32.78
2023-10-18T08:23:35.680Z,25.88
2023-10-18T08:24:27.156Z,24.63
2023-10-18T08:25:33.017Z,14.95
2023-10-18T08:26:27.963Z,18.38
2023-10-18T08:27:19.345Z,17.17
2023-10-18T08:28:15.040Z,20.25
2023-10-18T08:29:08.301Z,21.48
2023-10-18T08:30:08.407Z,14.18
2023-10-18T08:31:04.328Z,16.70
2023-10-18T08:32:05.676Z,22.45
2023-10-18T08:32:56.785Z,22.50
2023-10-18T08:33:47.798Z,20.98
2023-10-18T08:34:38.581Z,16.48
2023-10-18T08:35:29.466Z,17.52
2023-10-18T08:36:30.256Z,15.55
2023-10-18T08:37:21.205Z,13.07
2023-10-18T08:38:13.225Z,16.48
2023-10-18T08:39:04.120Z,17.23
2023-10-18T08:39:56.455Z,13.07
2023-10-18T08:40:50.701Z,13.88
2023-10-18T08:42:03.409Z,14.15
2023-10-18T08:43:06.787Z,16.77
2023-10-18T08:44:19.522Z,17.33
2023-10-18T08:45:20.573Z,21.33
2023-10-18T08:46:12.418Z,18.70
2023-10-18T08:47:09.966Z,22.58
2023-10-18T08:48:01.428Z,18.77
2023-10-18T08:48:57.132Z,28.50
2023-10-18T08:49:53.466Z,32.17
2023-10-18T08:50:46.245Z,40.03
2023-10-18T08:51:40.223Z,42.92
2023-10-18T08:52:36.392Z,34.95
2023-10-18T08:53:27.970Z,38.10
2023-10-18T08:54:20.949Z,31.92
2023-10-18T08:55:21.386Z,42.15
2023-10-18T08:56:12.764Z,31.95
2023-10-18T08:57:08.187Z,35.45
2023-10-18T08:57:59.041Z,37.10
2023-10-18T08:58:50.891Z,35.50
2023-10-18T08:59:48.340Z,36.25
2023-10-18T09:00:40.516Z,37.30
2023-10-18T09:01:35.699Z,36.30
2023-10-18T09:02:26.938Z,31.52
2023-10-18T09:03:18.374Z,34.85
2023-10-18T09:04:09.702Z,34.97
2023-10-18T09:05:00.639Z,30.52
2023-10-18T09:06:08.780Z,32.47
2023-10-18T09:07:02.138Z,32.70
2023-10-18T09:07:54.519Z,39.05
2023-10-18T09:08:46.277Z,46.75
2023-10-18T09:09:37.799Z,33.70
2023-10-18T09:10:43.837Z,36.90
2023-10-18T09:11:37.792Z,41.53
2023-10-18T09:12:37.002Z,36.78
2023-10-18T09:13:27.761Z,36.40
2023-10-18T09:14:18.922Z,39.10
2023-10-18T09:15:29.636Z,35.90
2023-10-18T09:16:21.303Z,38.40
2023-10-18T09:17:12.756Z,40.65
2023-10-18T09:18:05.324Z,36.42
2023-10-18T09:18:56.277Z,37.83
2023-10-18T09:19:52.610Z,32.05
2023-10-18T09:20:44.001Z,32.65
2023-10-18T09:21:45.275Z,39.33
2023-10-18T09:22:39.308Z,32.83
2023-10-18T09:23:31.375Z,29.90
2023-10-18T09:24:24.566Z,34.58
2023-10-18T09:25:15.584Z,38.15
2023-10-18T09:26:12.486Z,35.05
2023-10-18T09:27:05.677Z,31.13
2023-10-18T09:28:11.527Z,28.52
2023-10-18T09:29:03.695Z,34.38
2023-10-18T09:29:54.661Z,32.10
2023-10-18T09:30:45.528Z,38.03
2023-10-18T09:31:51.380Z,38.05
2023-10-18T09:32:42.365Z,35.70
2023-10-18T09:33:33.329Z,35.55
2023-10-18T09:34:28.043Z,33.72
2023-10-18T09:35:26.800Z,39.85
2023-10-18T09:36:26.839Z,34.40
2023-10-18T09:37:29.372Z,37.65
2023-10-18T09:38:22.530Z,35.80
2023-10-18T09:39:15.587Z,33.95
2023-10-18T09:40:07.501Z,30.33
2023-10-18T09:40:58.002Z,27.45
2023-10-18T09:41:49.253Z,28.63
2023-10-18T09:42:39.979Z,33.67
2023-10-18T09:43:30.841Z,30.30
2023-10-18T09:44:21.643Z,26.02
2023-10-18T09:45:15.204Z,24.85
2023-10-18T09:46:07.182Z,33.92
2023-10-18T09:47:00.745Z,26.30
2023-10-18T09:47:52.307Z,22.08
2023-10-18T09:49:36.024Z,28.30
2023-10-18T09:50:29.874Z,21.33
2023-10-18T09:51:24.575Z,26.35
2023-10-18T09:52:16.124Z,24.48
2023-10-18T09:53:07.247Z,25.17
2023-10-18T09:53:58.022Z,26.40
2023-10-18T09:54:50.844Z,23.95
2023-10-18T09:55:43.500Z,19.17
2023-10-18T09:56:35.963Z,20.77
2023-10-18T09:57:36.448Z,20.13
2023-10-18T09:58:29.922Z,22.38
2023-10-18T09:59:28.017Z,21.50
2023-10-18T10:01:27.256Z,23.63
2023-10-18T10:02:19.607Z,22.80
2023-10-18T10:03:11.352Z,20.80
2023-10-18T10:04:05.085Z,21.00
2023-10-18T10:04:56.917Z,20.95
2023-10-18T10:05:50.612Z,25.13
2023-10-18T10:06:48.623Z,24.27
2023-10-18T10:08:38.917Z,22.75
2023-10-18T10:09:31.107Z,26.35
2023-10-18T10:10:25.659Z,19.58
2023-10-18T10:11:20.271Z,30.48
2023-10-18T10:12:12.391Z,22.73
2023-10-18T10:13:10.059Z,20.75
2023-10-18T10:14:01.812Z,18.65
2023-10-18T10:14:52.918Z,22.13
2023-10-18T10:15:47.566Z,22.20
2023-10-18T10:16:45.693Z,19.88
2023-10-18T10:17:38.249Z,23.30
2023-10-18T10:18:33.364Z,19.30
2023-10-18T10:19:30.382Z,19.83
2023-10-18T10:20:23.106Z,19.35
2023-10-18T10:21:22.515Z,21.30
2023-10-18T10:22:16.821Z,19.92
2023-10-18T10:23:16.024Z,21.48
2023-10-18T10:24:29.185Z,23.25
2023-10-18T10:25:30.122Z,20.05
2023-10-18T10:26:33.937Z,23.08
2023-10-18T10:27:33.501Z,19.73
2023-10-18T10:29:03.427Z,23.85
2023-10-18T10:30:23.607Z,18.88
2023-10-18T10:31:24.204Z,23.35
2023-10-18T10:32:17.302Z,26.27
2023-10-18T10:33:13.233Z,20.88
2023-10-18T10:34:10.154Z,23.63
2023-10-18T10:35:18.744Z,24.45
2023-10-18T10:36:13.277Z,21.88
2023-10-18T10:37:08.614Z,23.70
2023-10-18T10:38:02.602Z,19.63
2023-10-18T10:38:56.883Z,19.35
2023-10-18T10:40:07.725Z,28.83
2023-10-18T10:42:42.800Z,21.38
2023-10-18T10:44:12.565Z,20.75
2023-10-18T10:45:25.011Z,22.67
2023-10-18T10:46:39.460Z,19.15
2023-10-18T10:47:32.109Z,20.88
2023-10-18T10:48:28.832Z,25.10
2023-10-18T10:49:59.260Z,20.30
2023-10-18T10:50:58.401Z,22.08
2023-10-18T10:51:57.123Z,22.88
2023-10-18T10:52:48.136Z,20.48
2023-10-18T10:53:58.879Z,21.55
2023-10-18T10:54:54.612Z,18.60
2023-10-18T10:55:47.393Z,21.52
2023-10-18T10:56:43.616Z,21.00
2023-10-18T10:57:44.955Z,25.88
2023-10-18T10:58:39.602Z,22.42
2023-10-18T10:59:38.002Z,20.33
2023-10-18T11:00:40.406Z,22.33
2023-10-18T11:01:41.506Z,19.50
2023-10-18T11:02:41.378Z,18.48
2023-10-18T11:03:55.804Z,22.63
2023-10-18T11:04:47.975Z,23.92
2023-10-18T11:05:40.800Z,20.85
2023-10-18T11:06:34.116Z,21.48
2023-10-18T11:07:27.322Z,23.75
2023-10-18T11:08:20.293Z,20.50
2023-10-18T11:09:19.101Z,23.90
2023-10-18T11:10:16.197Z,18.65
2023-10-18T11:11:07.849Z,18.08
2023-10-18T11:11:58.635Z,26.60
2023-10-18T11:12:49.791Z,22.85
2023-10-18T11:13:42.814Z,24.63
2023-10-18T11:14:33.534Z,20.95
2023-10-18T11:15:28.870Z,18.65
2023-10-18T11:16:23.807Z,22.27
2023-10-18T11:17:14.913Z,25.30
2023-10-18T11:18:18.323Z,18.65
2023-10-18T11:19:09.833Z,19.95
2023-10-18T11:21:08.008Z,22.90
2023-10-18T11:22:01.729Z,19.55
2023-10-18T11:22:53.025Z,18.63
2023-10-18T11:23:45.125Z,22.02
2023-10-18T11:24:36.353Z,17.13
2023-10-18T11:25:35.104Z,20.08
2023-10-18T11:26:26.433Z,16.08
2023-10-18T11:28:30.003Z,16.67
2023-10-18T11:29:25.374Z,15.23
2023-10-18T11:30:17.718Z,18.42
2023-10-18T11:31:09.461Z,15.95
2023-10-18T11:32:57.121Z,13.32
2023-10-18T11:33:48.385Z,14.88
2023-10-18T11:34:41.472Z,20.42
2023-10-18T11:35:50.381Z,15.32
2023-10-18T11:36:43.382Z,13.80
2023-10-18T11:37:38.031Z,15.60
2023-10-18T11:38:32.453Z,14.65
2023-10-18T11:39:26.229Z,13.25
2023-10-18T11:40:19.899Z,13.85
2023-10-18T11:41:12.932Z,21.60
2023-10-18T11:42:04.418Z,13.23
2023-10-18T11:43:11.927Z,13.35
2023-10-18T11:44:21.901Z,15.40
2023-10-18T11:45:20.709Z,13.02
2023-10-18T11:46:12.905Z,12.55
2023-10-18T11:47:20.461Z,17.60
2023-10-18T11:48:11.508Z,18.88
2023-10-18T11:49:07.303Z,19.02
2023-10-18T11:49:58.801Z,16.13
2023-10-18T11:50:49.987Z,15.18
2023-10-18T11:51:45.682Z,15.35
2023-10-18T11:52:37.332Z,12.63
2023-10-18T11:53:28.503Z,11.70
2023-10-18T11:54:33.123Z,13.88
2023-10-18T11:55:24.571Z,13.75
2023-10-18T11:56:15.407Z,15.60
2023-10-18T11:57:25.252Z,12.73
2023-10-18T11:58:18.352Z,11.02
2023-10-18T11:59:09.065Z,10.90
2023-10-18T12:00:21.187Z,15.20
2023-10-18T12:01:20.218Z,12.60
2023-10-18T12:02:14.882Z,12.55
2023-10-18T12:03:06.426Z,9.55
2023-10-18T12:03:57.241Z,13.50
2023-10-18T12:04:49.470Z,11.80
2023-10-18T12:05:44.029Z,13.93
2023-10-18T12:06:35.207Z,12.35
2023-10-18T12:07:26.884Z,12.07
2023-10-18T12:09:09.261Z,8.45
2023-10-18T12:10:02.438Z,9.15
2023-10-18T12:10:53.659Z,9.65
2023-10-18T12:11:44.523Z,10.77
2023-10-18T12:12:35.342Z,11.25
2023-10-18T12:13:27.842Z,9.07
2023-10-18T12:14:19.476Z,10.00
2023-10-18T12:16:01.779Z,10.50
2023-10-18T12:16:56.326Z,10.02
2023-10-18T12:17:50.444Z,11.50
2023-10-18T12:18:41.528Z,11.45
2023-10-18T12:19:32.720Z,9.75